sensor_id;sensor_type;location;lat;lon;timestamp;P1;durP1;ratioP1;P2;durP2;ratioP2
37407;SDS011;24866;50.248;8.252;2022-12-28T00:00:30;8.43;;;4.75;;
37407;SDS011;24866;50.248;8.252;2022-12-28T00:03:03;9.02;;;4.78;;
37407;SDS011;24866;50.248;8.252;2022-12-28T00:05:34;9.73;;;3.90;;
37407;SDS011;24866;50.248;8.252;2022-12-28T00:08:05;8.80;;;3.90;;
37407;SDS011;24866;50.248;8.252;2022-12-28T00:10:35;9.98;;;5.13;;
37407;SDS011;24866;50.248;8.252;2022-12-28T00:13:06;13.32;;;4.50;;
37407;SDS011;24866;50.248;8.252;2022-12-28T00:15:38;13.35;;;4.07;;
37407;SDS011;24866;50.248;8.252;2022-12-28T00:18:09;10.50;;;5.03;;
37407;SDS011;24866;50.248;8.252;2022-12-28T00:20:48;11.15;;;5.53;;
37407;SDS011;24866;50.248;8.252;2022-12-28T00:23:26;12.10;;;5.17;;
37407;SDS011;24866;50.248;8.252;2022-12-28T00:26:04;6.93;;;4.78;;
37407;SDS011;24866;50.248;8.252;2022-12-28T00:28:38;10.02;;;5.32;;
37407;SDS011;24866;50.248;8.252;2022-12-28T00:31:38;12.15;;;4.65;;
37407;SDS011;24866;50.248;8.252;2022-12-28T00:34:10;8.75;;;4.82;;
37407;SDS011;24866;50.248;8.252;2022-12-28T00:36:42;10.27;;;5.40;;
37407;SDS011;24866;50.248;8.252;2022-12-28T00:39:13;11.57;;;5.45;;
37407;SDS011;24866;50.248;8.252;2022-12-28T00:41:43;11.15;;;4.95;;
37407;SDS011;24866;50.248;8.252;2022-12-28T00:44:13;12.05;;;5.70;;
37407;SDS011;24866;50.248;8.252;2022-12-28T00:46:43;12.75;;;5.55;;
37407;SDS011;24866;50.248;8.252;2022-12-28T00:49:15;9.15;;;5.00;;
37407;SDS011;24866;50.248;8.252;2022-12-28T00:51:47;10.38;;;4.75;;
37407;SDS011;24866;50.248;8.252;2022-12-28T00:54:17;9.70;;;4.95;;
37407;SDS011;24866;50.248;8.252;2022-12-28T00:56:47;12.00;;;5.63;;
37407;SDS011;24866;50.248;8.252;2022-12-28T00:59:18;9.70;;;5.15;;
37407;SDS011;24866;50.248;8.252;2022-12-28T01:01:49;12.90;;;5.63;;
37407;SDS011;24866;50.248;8.252;2022-12-28T01:04:19;11.07;;;5.65;;
37407;SDS011;24866;50.248;8.252;2022-12-28T01:06:51;11.80;;;6.68;;
37407;SDS011;24866;50.248;8.252;2022-12-28T01:09:22;14.32;;;6.72;;
37407;SDS011;24866;50.248;8.252;2022-12-28T01:11:53;13.32;;;7.53;;
37407;SDS011;24866;50.248;8.252;2022-12-28T01:14:23;14.15;;;7.45;;
37407;SDS011;24866;50.248;8.252;2022-12-28T01:16:56;20.52;;;8.65;;
37407;SDS011;24866;50.248;8.252;2022-12-28T01:19:30;16.73;;;8.20;;
37407;SDS011;24866;50.248;8.252;2022-12-28T01:22:02;17.15;;;8.38;;
37407;SDS011;24866;50.248;8.252;2022-12-28T01:24:33;15.20;;;9.10;;
37407;SDS011;24866;50.248;8.252;2022-12-28T01:27:06;15.00;;;9.43;;
37407;SDS011;24866;50.248;8.252;2022-12-28T01:29:36;16.17;;;10.20;;
37407;SDS011;24866;50.248;8.252;2022-12-28T01:32:07;15.65;;;9.27;;
37407;SDS011;24866;50.248;8.252;2022-12-28T01:34:37;13.88;;;8.65;;
37407;SDS011;24866;50.248;8.252;2022-12-28T01:37:11;17.27;;;8.88;;
37407;SDS011;24866;50.248;8.252;2022-12-28T01:39:42;19.88;;;9.38;;
37407;SDS011;24866;50.248;8.252;2022-12-28T01:42:19;19.83;;;10.35;;
37407;SDS011;24866;50.248;8.252;2022-12-28T01:44:50;17.85;;;11.13;;
37407;SDS011;24866;50.248;8.252;2022-12-28T01:49:58;14.57;;;8.80;;
37407;SDS011;24866;50.248;8.252;2022-12-28T01:52:33;17.83;;;11.43;;
37407;SDS011;24866;50.248;8.252;2022-12-28T01:55:10;21.08;;;11.27;;
37407;SDS011;24866;50.248;8.252;2022-12-28T01:57:46;17.00;;;9.80;;
37407;SDS011;24866;50.248;8.252;2022-12-28T02:00:21;21.95;;;10.80;;
37407;SDS011;24866;50.248;8.252;2022-12-28T02:02:53;16.55;;;9.75;;
37407;SDS011;24866;50.248;8.252;2022-12-28T02:05:28;18.50;;;9.20;;
37407;SDS011;24866;50.248;8.252;2022-12-28T02:08:05;14.20;;;10.00;;
37407;SDS011;24866;50.248;8.252;2022-12-28T02:10:39;16.33;;;8.75;;
37407;SDS011;24866;50.248;8.252;2022-12-28T02:13:10;14.02;;;8.05;;
37407;SDS011;24866;50.248;8.252;2022-12-28T02:15:42;16.93;;;8.50;;
37407;SDS011;24866;50.248;8.252;2022-12-28T02:18:13;16.38;;;8.90;;
37407;SDS011;24866;50.248;8.252;2022-12-28T02:21:01;14.43;;;8.70;;
37407;SDS011;24866;50.248;8.252;2022-12-28T02:26:55;14.82;;;7.80;;
37407;SDS011;24866;50.248;8.252;2022-12-28T02:29:48;14.27;;;8.32;;
37407;SDS011;24866;50.248;8.252;2022-12-28T02:32:37;16.45;;;8.93;;
37407;SDS011;24866;50.248;8.252;2022-12-28T02:35:16;17.05;;;8.65;;
37407;SDS011;24866;50.248;8.252;2022-12-28T02:37:50;16.98;;;8.98;;
37407;SDS011;24866;50.248;8.252;2022-12-28T02:43:24;14.95;;;9.38;;
37407;SDS011;24866;50.248;8.252;2022-12-28T02:45:56;14.13;;;8.20;;
37407;SDS011;24866;50.248;8.252;2022-12-28T02:48:55;20.80;;;11.68;;
37407;SDS011;24866;50.248;8.252;2022-12-28T02:51:57;16.77;;;9.82;;
37407;SDS011;24866;50.248;8.252;2022-12-28T02:54:40;24.25;;;11.73;;
37407;SDS011;24866;50.248;8.252;2022-12-28T02:57:57;16.02;;;10.65;;
37407;SDS011;24866;50.248;8.252;2022-12-28T03:00:50;21.13;;;12.77;;
37407;SDS011;24866;50.248;8.252;2022-12-28T03:03:30;21.63;;;11.95;;
37407;SDS011;24866;50.248;8.252;2022-12-28T03:06:09;24.60;;;13.10;;
37407;SDS011;24866;50.248;8.252;2022-12-28T03:09:02;18.35;;;11.95;;
37407;SDS011;24866;50.248;8.252;2022-12-28T03:11:41;23.50;;;13.07;;
37407;SDS011;24866;50.248;8.252;2022-12-28T03:14:17;22.67;;;13.68;;
37407;SDS011;24866;50.248;8.252;2022-12-28T03:16:53;20.80;;;13.80;;
37407;SDS011;24866;50.248;8.252;2022-12-28T03:19:47;23.27;;;13.05;;
37407;SDS011;24866;50.248;8.252;2022-12-28T03:22:40;21.67;;;13.32;;
37407;SDS011;24866;50.248;8.252;2022-12-28T03:25:31;26.20;;;15.63;;
37407;SDS011;24866;50.248;8.252;2022-12-28T03:28:22;23.88;;;14.18;;
37407;SDS011;24866;50.248;8.252;2022-12-28T03:31:14;29.52;;;16.50;;
37407;SDS011;24866;50.248;8.252;2022-12-28T03:33:49;20.38;;;13.80;;
37407;SDS011;24866;50.248;8.252;2022-12-28T03:36:36;27.27;;;14.98;;
37407;SDS011;24866;50.248;8.252;2022-12-28T03:39:18;22.83;;;13.80;;
37407;SDS011;24866;50.248;8.252;2022-12-28T03:45:20;20.30;;;12.05;;
37407;SDS011;24866;50.248;8.252;2022-12-28T03:48:03;21.92;;;14.25;;
37407;SDS011;24866;50.248;8.252;2022-12-28T03:50:35;24.00;;;14.45;;
37407;SDS011;24866;50.248;8.252;2022-12-28T03:53:08;22.35;;;13.82;;
37407;SDS011;24866;50.248;8.252;2022-12-28T03:55:39;19.92;;;13.18;;
37407;SDS011;24866;50.248;8.252;2022-12-28T03:58:13;24.65;;;14.18;;
37407;SDS011;24866;50.248;8.252;2022-12-28T04:00:54;21.90;;;12.80;;
37407;SDS011;24866;50.248;8.252;2022-12-28T04:03:24;20.77;;;13.95;;
37407;SDS011;24866;50.248;8.252;2022-12-28T04:05:58;22.65;;;14.00;;
37407;SDS011;24866;50.248;8.252;2022-12-28T04:08:30;25.85;;;14.77;;
37407;SDS011;24866;50.248;8.252;2022-12-28T04:11:00;23.90;;;13.82;;
37407;SDS011;24866;50.248;8.252;2022-12-28T04:13:33;24.85;;;15.20;;
37407;SDS011;24866;50.248;8.252;2022-12-28T04:16:13;23.30;;;14.77;;
37407;SDS011;24866;50.248;8.252;2022-12-28T04:18:44;23.92;;;13.98;;
37407;SDS011;24866;50.248;8.252;2022-12-28T04:21:17;28.85;;;15.73;;
37407;SDS011;24866;50.248;8.252;2022-12-28T04:23:48;20.35;;;14.30;;
37407;SDS011;24866;50.248;8.252;2022-12-28T04:26:18;24.48;;;14.57;;
37407;SDS011;24866;50.248;8.252;2022-12-28T04:28:48;22.50;;;15.35;;
37407;SDS011;24866;50.248;8.252;2022-12-28T04:31:19;22.45;;;15.43;;
37407;SDS011;24866;50.248;8.252;2022-12-28T04:33:49;23.60;;;15.55;;
37407;SDS011;24866;50.248;8.252;2022-12-28T04:36:20;25.05;;;15.55;;
37407;SDS011;24866;50.248;8.252;2022-12-28T04:38:51;26.83;;;15.93;;
37407;SDS011;24866;50.248;8.252;2022-12-28T04:41:21;22.65;;;14.90;;
37407;SDS011;24866;50.248;8.252;2022-12-28T04:43:52;30.58;;;16.13;;
37407;SDS011;24866;50.248;8.252;2022-12-28T04:46:24;26.42;;;16.92;;
37407;SDS011;24866;50.248;8.252;2022-12-28T04:51:30;27.17;;;15.57;;
37407;SDS011;24866;50.248;8.252;2022-12-28T04:54:00;25.98;;;16.15;;
37407;SDS011;24866;50.248;8.252;2022-12-28T04:56:30;24.20;;;15.30;;
37407;SDS011;24866;50.248;8.252;2022-12-28T04:59:00;26.25;;;16.20;;
37407;SDS011;24866;50.248;8.252;2022-12-28T05:01:30;28.73;;;16.65;;
37407;SDS011;24866;50.248;8.252;2022-12-28T05:04:01;24.15;;;14.48;;
37407;SDS011;24866;50.248;8.252;2022-12-28T05:06:33;25.15;;;14.82;;
37407;SDS011;24866;50.248;8.252;2022-12-28T05:09:03;28.35;;;15.55;;
37407;SDS011;24866;50.248;8.252;2022-12-28T05:11:33;26.27;;;14.65;;
37407;SDS011;24866;50.248;8.252;2022-12-28T05:14:04;24.55;;;15.52;;
37407;SDS011;24866;50.248;8.252;2022-12-28T05:16:34;21.33;;;14.73;;
37407;SDS011;24866;50.248;8.252;2022-12-28T05:19:05;29.95;;;14.65;;
37407;SDS011;24866;50.248;8.252;2022-12-28T05:21:36;21.50;;;14.10;;
37407;SDS011;24866;50.248;8.252;2022-12-28T05:24:07;21.10;;;13.33;;
37407;SDS011;24866;50.248;8.252;2022-12-28T05:26:37;20.30;;;13.27;;
37407;SDS011;24866;50.248;8.252;2022-12-28T05:29:07;21.95;;;13.27;;
37407;SDS011;24866;50.248;8.252;2022-12-28T05:31:39;20.25;;;13.80;;
37407;SDS011;24866;50.248;8.252;2022-12-28T05:34:10;21.37;;;12.77;;
37407;SDS011;24866;50.248;8.252;2022-12-28T05:36:41;23.38;;;14.77;;
37407;SDS011;24866;50.248;8.252;2022-12-28T05:39:11;20.07;;;13.60;;
37407;SDS011;24866;50.248;8.252;2022-12-28T05:41:42;20.73;;;13.52;;
37407;SDS011;24866;50.248;8.252;2022-12-28T05:44:11;22.70;;;14.35;;
37407;SDS011;24866;50.248;8.252;2022-12-28T05:46:42;18.88;;;12.27;;
37407;SDS011;24866;50.248;8.252;2022-12-28T05:49:13;18.77;;;12.05;;
37407;SDS011;24866;50.248;8.252;2022-12-28T05:51:44;19.65;;;12.88;;
37407;SDS011;24866;50.248;8.252;2022-12-28T05:54:16;19.38;;;13.38;;
37407;SDS011;24866;50.248;8.252;2022-12-28T05:56:48;21.15;;;13.52;;
37407;SDS011;24866;50.248;8.252;2022-12-28T05:59:18;20.52;;;11.90;;
37407;SDS011;24866;50.248;8.252;2022-12-28T06:01:48;18.70;;;12.55;;
37407;SDS011;24866;50.248;8.252;2022-12-28T06:04:19;18.35;;;11.13;;
37407;SDS011;24866;50.248;8.252;2022-12-28T06:06:51;19.77;;;12.35;;
37407;SDS011;24866;50.248;8.252;2022-12-28T06:09:22;21.02;;;12.43;;
37407;SDS011;24866;50.248;8.252;2022-12-28T06:11:52;18.65;;;11.88;;
37407;SDS011;24866;50.248;8.252;2022-12-28T06:14:28;19.27;;;14.10;;
37407;SDS011;24866;50.248;8.252;2022-12-28T06:17:19;19.33;;;12.40;;
37407;SDS011;24866;50.248;8.252;2022-12-28T06:19:49;21.15;;;13.38;;
37407;SDS011;24866;50.248;8.252;2022-12-28T06:22:21;18.80;;;12.63;;
37407;SDS011;24866;50.248;8.252;2022-12-28T06:24:51;16.75;;;12.07;;
37407;SDS011;24866;50.248;8.252;2022-12-28T06:27:21;17.75;;;11.23;;
37407;SDS011;24866;50.248;8.252;2022-12-28T06:29:52;16.80;;;12.23;;
37407;SDS011;24866;50.248;8.252;2022-12-28T06:32:22;21.08;;;10.85;;
37407;SDS011;24866;50.248;8.252;2022-12-28T06:34:55;15.65;;;10.77;;
37407;SDS011;24866;50.248;8.252;2022-12-28T06:37:27;20.80;;;11.95;;
37407;SDS011;24866;50.248;8.252;2022-12-28T06:39:57;19.83;;;10.65;;
37407;SDS011;24866;50.248;8.252;2022-12-28T06:42:27;16.10;;;11.10;;
37407;SDS011;24866;50.248;8.252;2022-12-28T06:44:58;15.60;;;10.07;;
37407;SDS011;24866;50.248;8.252;2022-12-28T06:47:28;20.02;;;11.07;;
37407;SDS011;24866;50.248;8.252;2022-12-28T06:49:58;13.20;;;10.20;;
37407;SDS011;24866;50.248;8.252;2022-12-28T06:52:30;17.42;;;9.68;;
37407;SDS011;24866;50.248;8.252;2022-12-28T06:55:01;17.00;;;9.90;;
37407;SDS011;24866;50.248;8.252;2022-12-28T06:57:31;15.75;;;10.07;;
37407;SDS011;24866;50.248;8.252;2022-12-28T07:00:01;14.43;;;9.45;;
37407;SDS011;24866;50.248;8.252;2022-12-28T07:02:32;14.05;;;8.65;;
37407;SDS011;24866;50.248;8.252;2022-12-28T07:05:04;12.32;;;7.93;;
37407;SDS011;24866;50.248;8.252;2022-12-28T07:07:35;12.32;;;7.22;;
37407;SDS011;24866;50.248;8.252;2022-12-28T07:10:06;12.75;;;6.65;;
37407;SDS011;24866;50.248;8.252;2022-12-28T07:12:36;10.10;;;6.57;;
37407;SDS011;24866;50.248;8.252;2022-12-28T07:15:06;9.55;;;6.38;;
37407;SDS011;24866;50.248;8.252;2022-12-28T07:17:37;8.98;;;6.07;;
37407;SDS011;24866;50.248;8.252;2022-12-28T07:20:08;10.70;;;6.38;;
37407;SDS011;24866;50.248;8.252;2022-12-28T07:22:40;10.98;;;6.82;;
37407;SDS011;24866;50.248;8.252;2022-12-28T07:25:11;10.55;;;5.82;;
37407;SDS011;24866;50.248;8.252;2022-12-28T07:27:41;10.20;;;4.95;;
37407;SDS011;24866;50.248;8.252;2022-12-28T07:30:11;11.23;;;5.22;;
37407;SDS011;24866;50.248;8.252;2022-12-28T07:32:42;11.30;;;6.00;;
37407;SDS011;24866;50.248;8.252;2022-12-28T07:35:12;7.90;;;5.57;;
37407;SDS011;24866;50.248;8.252;2022-12-28T07:37:43;10.32;;;5.43;;
37407;SDS011;24866;50.248;8.252;2022-12-28T07:40:14;9.05;;;5.63;;
37407;SDS011;24866;50.248;8.252;2022-12-28T07:42:44;9.00;;;5.45;;
37407;SDS011;24866;50.248;8.252;2022-12-28T07:45:14;8.88;;;5.40;;
37407;SDS011;24866;50.248;8.252;2022-12-28T07:47:44;8.60;;;5.10;;
37407;SDS011;24866;50.248;8.252;2022-12-28T07:50:15;9.07;;;5.75;;
37407;SDS011;24866;50.248;8.252;2022-12-28T07:52:46;8.57;;;5.55;;
37407;SDS011;24866;50.248;8.252;2022-12-28T07:55:16;8.32;;;5.00;;
37407;SDS011;24866;50.248;8.252;2022-12-28T07:57:46;10.23;;;4.75;;
37407;SDS011;24866;50.248;8.252;2022-12-28T08:00:16;11.35;;;5.78;;
37407;SDS011;24866;50.248;8.252;2022-12-28T08:02:47;10.98;;;4.85;;
37407;SDS011;24866;50.248;8.252;2022-12-28T08:05:17;8.25;;;4.47;;
37407;SDS011;24866;50.248;8.252;2022-12-28T08:07:48;9.40;;;4.32;;
37407;SDS011;24866;50.248;8.252;2022-12-28T08:10:19;5.88;;;4.07;;
37407;SDS011;24866;50.248;8.252;2022-12-28T08:12:49;7.60;;;5.07;;
37407;SDS011;24866;50.248;8.252;2022-12-28T08:15:19;7.28;;;4.20;;
37407;SDS011;24866;50.248;8.252;2022-12-28T08:17:50;7.15;;;4.13;;
37407;SDS011;24866;50.248;8.252;2022-12-28T08:20:22;6.88;;;3.50;;
37407;SDS011;24866;50.248;8.252;2022-12-28T08:22:55;6.32;;;3.35;;
37407;SDS011;24866;50.248;8.252;2022-12-28T08:25:25;10.23;;;4.07;;
37407;SDS011;24866;50.248;8.252;2022-12-28T08:27:55;5.60;;;3.05;;
37407;SDS011;24866;50.248;8.252;2022-12-28T08:30:25;9.30;;;4.40;;
37407;SDS011;24866;50.248;8.252;2022-12-28T08:32:55;7.35;;;3.40;;
37407;SDS011;24866;50.248;8.252;2022-12-28T08:35:26;5.57;;;3.10;;
37407;SDS011;24866;50.248;8.252;2022-12-28T08:37:57;7.85;;;3.60;;
37407;SDS011;24866;50.248;8.252;2022-12-28T08:40:27;4.85;;;2.88;;
37407;SDS011;24866;50.248;8.252;2022-12-28T08:42:58;6.32;;;2.92;;
37407;SDS011;24866;50.248;8.252;2022-12-28T08:45:29;5.60;;;2.60;;
37407;SDS011;24866;50.248;8.252;2022-12-28T08:48:00;6.15;;;2.67;;
37407;SDS011;24866;50.248;8.252;2022-12-28T08:50:31;7.85;;;2.97;;
37407;SDS011;24866;50.248;8.252;2022-12-28T08:53:03;7.13;;;2.97;;
37407;SDS011;24866;50.248;8.252;2022-12-28T08:55:33;5.93;;;2.55;;
37407;SDS011;24866;50.248;8.252;2022-12-28T08:58:03;4.45;;;2.30;;
37407;SDS011;24866;50.248;8.252;2022-12-28T09:00:34;3.35;;;2.03;;
37407;SDS011;24866;50.248;8.252;2022-12-28T09:03:04;5.25;;;2.72;;
37407;SDS011;24866;50.248;8.252;2022-12-28T09:05:35;7.10;;;2.22;;
37407;SDS011;24866;50.248;8.252;2022-12-28T09:08:07;6.60;;;2.40;;
37407;SDS011;24866;50.248;8.252;2022-12-28T09:10:37;4.78;;;2.15;;
37407;SDS011;24866;50.248;8.252;2022-12-28T09:13:09;4.20;;;2.22;;
37407;SDS011;24866;50.248;8.252;2022-12-28T09:15:39;4.20;;;2.05;;
37407;SDS011;24866;50.248;8.252;2022-12-28T09:18:10;6.90;;;2.30;;
37407;SDS011;24866;50.248;8.252;2022-12-28T09:20:41;7.93;;;2.40;;
37407;SDS011;24866;50.248;8.252;2022-12-28T09:23:14;4.93;;;2.47;;
37407;SDS011;24866;50.248;8.252;2022-12-28T09:25:44;5.85;;;2.03;;
37407;SDS011;24866;50.248;8.252;2022-12-28T09:28:14;4.20;;;2.60;;
37407;SDS011;24866;50.248;8.252;2022-12-28T09:30:44;5.90;;;2.40;;
37407;SDS011;24866;50.248;8.252;2022-12-28T09:33:15;4.78;;;2.10;;
37407;SDS011;24866;50.248;8.252;2022-12-28T09:36:02;4.90;;;2.58;;
37407;SDS011;24866;50.248;8.252;2022-12-28T09:38:35;5.32;;;2.47;;
37407;SDS011;24866;50.248;8.252;2022-12-28T09:41:09;6.82;;;2.80;;
37407;SDS011;24866;50.248;8.252;2022-12-28T09:43:42;4.50;;;2.38;;
37407;SDS011;24866;50.248;8.252;2022-12-28T09:46:13;5.00;;;2.25;;
37407;SDS011;24866;50.248;8.252;2022-12-28T09:48:49;7.38;;;2.83;;
37407;SDS011;24866;50.248;8.252;2022-12-28T09:51:23;5.53;;;2.35;;
37407;SDS011;24866;50.248;8.252;2022-12-28T09:54:03;4.15;;;2.47;;
37407;SDS011;24866;50.248;8.252;2022-12-28T09:56:34;7.13;;;2.50;;
37407;SDS011;24866;50.248;8.252;2022-12-28T09:59:11;6.07;;;2.65;;
37407;SDS011;24866;50.248;8.252;2022-12-28T10:01:52;5.53;;;2.70;;
37407;SDS011;24866;50.248;8.252;2022-12-28T10:04:28;9.25;;;2.65;;
37407;SDS011;24866;50.248;8.252;2022-12-28T10:07:12;5.53;;;2.50;;
37407;SDS011;24866;50.248;8.252;2022-12-28T10:09:46;8.48;;;3.03;;
37407;SDS011;24866;50.248;8.252;2022-12-28T10:12:21;5.47;;;2.83;;
37407;SDS011;24866;50.248;8.252;2022-12-28T10:14:52;6.30;;;2.50;;
37407;SDS011;24866;50.248;8.252;2022-12-28T10:17:24;8.38;;;2.80;;
37407;SDS011;24866;50.248;8.252;2022-12-28T10:19:57;6.13;;;3.25;;
37407;SDS011;24866;50.248;8.252;2022-12-28T10:22:36;7.63;;;2.95;;
37407;SDS011;24866;50.248;8.252;2022-12-28T10:25:16;8.52;;;2.70;;
37407;SDS011;24866;50.248;8.252;2022-12-28T10:27:47;6.72;;;2.75;;
37407;SDS011;24866;50.248;8.252;2022-12-28T10:30:19;4.90;;;2.42;;
37407;SDS011;24866;50.248;8.252;2022-12-28T10:32:54;8.05;;;2.03;;
37407;SDS011;24866;50.248;8.252;2022-12-28T10:35:26;7.65;;;2.47;;
37407;SDS011;24866;50.248;8.252;2022-12-28T10:37:59;5.95;;;2.58;;
37407;SDS011;24866;50.248;8.252;2022-12-28T10:40:33;5.10;;;2.10;;
37407;SDS011;24866;50.248;8.252;2022-12-28T10:43:15;6.80;;;2.83;;
37407;SDS011;24866;50.248;8.252;2022-12-28T10:45:48;6.28;;;2.13;;
37407;SDS011;24866;50.248;8.252;2022-12-28T10:48:20;6.18;;;2.78;;
37407;SDS011;24866;50.248;8.252;2022-12-28T10:50:54;6.63;;;2.40;;
37407;SDS011;24866;50.248;8.252;2022-12-28T10:53:26;7.63;;;2.67;;
37407;SDS011;24866;50.248;8.252;2022-12-28T10:56:04;2.75;;;2.15;;
37407;SDS011;24866;50.248;8.252;2022-12-28T10:58:43;6.50;;;2.20;;
37407;SDS011;24866;50.248;8.252;2022-12-28T11:01:16;5.65;;;2.20;;
37407;SDS011;24866;50.248;8.252;2022-12-28T11:03:56;4.80;;;2.50;;
37407;SDS011;24866;50.248;8.252;2022-12-28T11:06:33;4.85;;;2.20;;
37407;SDS011;24866;50.248;8.252;2022-12-28T11:09:14;5.13;;;2.05;;
37407;SDS011;24866;50.248;8.252;2022-12-28T11:11:48;3.58;;;2.00;;
37407;SDS011;24866;50.248;8.252;2022-12-28T11:14:23;4.65;;;1.90;;
37407;SDS011;24866;50.248;8.252;2022-12-28T11:16:57;4.65;;;2.17;;
37407;SDS011;24866;50.248;8.252;2022-12-28T11:19:41;6.20;;;1.95;;
37407;SDS011;24866;50.248;8.252;2022-12-28T11:22:12;6.28;;;1.98;;
37407;SDS011;24866;50.248;8.252;2022-12-28T11:24:46;7.82;;;1.80;;
37407;SDS011;24866;50.248;8.252;2022-12-28T11:27:19;5.30;;;1.80;;
37407;SDS011;24866;50.248;8.252;2022-12-28T11:29:52;5.10;;;1.70;;
37407;SDS011;24866;50.248;8.252;2022-12-28T11:32:24;5.25;;;2.10;;
37407;SDS011;24866;50.248;8.252;2022-12-28T11:34:57;3.22;;;1.70;;
37407;SDS011;24866;50.248;8.252;2022-12-28T11:37:28;7.07;;;2.17;;
37407;SDS011;24866;50.248;8.252;2022-12-28T11:39:59;4.72;;;2.00;;
37407;SDS011;24866;50.248;8.252;2022-12-28T11:51:13;7.82;;;2.15;;
37407;SDS011;24866;50.248;8.252;2022-12-28T11:53:49;4.85;;;2.22;;
37407;SDS011;24866;50.248;8.252;2022-12-28T11:56:22;6.28;;;2.08;;
37407;SDS011;24866;50.248;8.252;2022-12-28T11:59:12;5.23;;;2.47;;
37407;SDS011;24866;50.248;8.252;2022-12-28T12:01:50;4.45;;;2.10;;
37407;SDS011;24866;50.248;8.252;2022-12-28T12:10:26;4.53;;;1.88;;
37407;SDS011;24866;50.248;8.252;2022-12-28T12:13:02;3.90;;;1.73;;
37407;SDS011;24866;50.248;8.252;2022-12-28T12:16:02;6.97;;;2.03;;
37407;SDS011;24866;50.248;8.252;2022-12-28T12:18:38;4.97;;;1.95;;
37407;SDS011;24866;50.248;8.252;2022-12-28T12:21:20;5.38;;;2.33;;
37407;SDS011;24866;50.248;8.252;2022-12-28T12:24:02;6.63;;;3.03;;
37407;SDS011;24866;50.248;8.252;2022-12-28T12:26:48;8.90;;;2.97;;
37407;SDS011;24866;50.248;8.252;2022-12-28T12:29:22;5.35;;;2.25;;
37407;SDS011;24866;50.248;8.252;2022-12-28T12:32:09;6.22;;;2.20;;
37407;SDS011;24866;50.248;8.252;2022-12-28T12:34:47;5.85;;;2.30;;
37407;SDS011;24866;50.248;8.252;2022-12-28T12:40:34;5.40;;;2.65;;
37407;SDS011;24866;50.248;8.252;2022-12-28T12:43:23;3.88;;;1.95;;
37407;SDS011;24866;50.248;8.252;2022-12-28T12:46:04;3.78;;;2.15;;
37407;SDS011;24866;50.248;8.252;2022-12-28T12:48:59;7.90;;;2.55;;
37407;SDS011;24866;50.248;8.252;2022-12-28T12:51:43;6.38;;;2.28;;
37407;SDS011;24866;50.248;8.252;2022-12-28T12:54:22;4.50;;;2.60;;
37407;SDS011;24866;50.248;8.252;2022-12-28T12:57:02;3.10;;;1.90;;
37407;SDS011;24866;50.248;8.252;2022-12-28T12:59:43;4.90;;;2.35;;
37407;SDS011;24866;50.248;8.252;2022-12-28T13:02:33;6.65;;;2.20;;
37407;SDS011;24866;50.248;8.252;2022-12-28T13:05:19;4.97;;;3.00;;
37407;SDS011;24866;50.248;8.252;2022-12-28T13:07:52;4.82;;;2.20;;
37407;SDS011;24866;50.248;8.252;2022-12-28T13:10:25;4.83;;;2.47;;
37407;SDS011;24866;50.248;8.252;2022-12-28T13:13:00;5.35;;;2.35;;
37407;SDS011;24866;50.248;8.252;2022-12-28T13:15:31;5.78;;;2.00;;
37407;SDS011;24866;50.248;8.252;2022-12-28T13:18:03;4.95;;;2.47;;
37407;SDS011;24866;50.248;8.252;2022-12-28T13:23:13;4.10;;;2.00;;
37407;SDS011;24866;50.248;8.252;2022-12-28T13:25:45;3.42;;;2.15;;
37407;SDS011;24866;50.248;8.252;2022-12-28T13:28:19;6.45;;;2.13;;
37407;SDS011;24866;50.248;8.252;2022-12-28T13:30:54;4.55;;;2.55;;
37407;SDS011;24866;50.248;8.252;2022-12-28T13:33:32;3.20;;;2.38;;
37407;SDS011;24866;50.248;8.252;2022-12-28T13:36:05;5.07;;;2.90;;
37407;SDS011;24866;50.248;8.252;2022-12-28T13:38:44;4.75;;;2.80;;
37407;SDS011;24866;50.248;8.252;2022-12-28T13:41:18;4.28;;;2.28;;
37407;SDS011;24866;50.248;8.252;2022-12-28T13:46:47;7.43;;;3.15;;
37407;SDS011;24866;50.248;8.252;2022-12-28T13:49:25;4.03;;;2.28;;
37407;SDS011;24866;50.248;8.252;2022-12-28T13:52:00;5.93;;;2.80;;
37407;SDS011;24866;50.248;8.252;2022-12-28T13:54:35;7.93;;;3.28;;
37407;SDS011;24866;50.248;8.252;2022-12-28T13:57:07;6.35;;;3.25;;
37407;SDS011;24866;50.248;8.252;2022-12-28T13:59:40;6.97;;;3.72;;
37407;SDS011;24866;50.248;8.252;2022-12-28T14:02:12;6.00;;;3.47;;
37407;SDS011;24866;50.248;8.252;2022-12-28T14:04:46;6.35;;;3.38;;
37407;SDS011;24866;50.248;8.252;2022-12-28T14:07:22;9.27;;;3.45;;
37407;SDS011;24866;50.248;8.252;2022-12-28T14:09:55;4.50;;;2.47;;
37407;SDS011;24866;50.248;8.252;2022-12-28T14:12:26;6.03;;;3.13;;
37407;SDS011;24866;50.248;8.252;2022-12-28T14:14:57;5.32;;;2.78;;
37407;SDS011;24866;50.248;8.252;2022-12-28T14:17:27;7.30;;;3.13;;
37407;SDS011;24866;50.248;8.252;2022-12-28T14:19:58;5.68;;;2.70;;
37407;SDS011;24866;50.248;8.252;2022-12-28T14:22:30;5.10;;;2.40;;
37407;SDS011;24866;50.248;8.252;2022-12-28T14:25:04;3.70;;;2.47;;
37407;SDS011;24866;50.248;8.252;2022-12-28T14:27:35;4.63;;;2.78;;
37407;SDS011;24866;50.248;8.252;2022-12-28T14:30:19;4.47;;;2.60;;
37407;SDS011;24866;50.248;8.252;2022-12-28T14:32:52;4.03;;;2.35;;
37407;SDS011;24866;50.248;8.252;2022-12-28T14:35:24;4.15;;;2.40;;
37407;SDS011;24866;50.248;8.252;2022-12-28T14:37:58;7.93;;;3.22;;
37407;SDS011;24866;50.248;8.252;2022-12-28T14:40:30;5.13;;;2.88;;
37407;SDS011;24866;50.248;8.252;2022-12-28T14:43:02;7.78;;;3.30;;
37407;SDS011;24866;50.248;8.252;2022-12-28T14:45:40;5.85;;;2.80;;
37407;SDS011;24866;50.248;8.252;2022-12-28T14:48:22;5.00;;;2.70;;
37407;SDS011;24866;50.248;8.252;2022-12-28T14:51:00;8.48;;;3.65;;
37407;SDS011;24866;50.248;8.252;2022-12-28T14:53:33;8.27;;;4.28;;
37407;SDS011;24866;50.248;8.252;2022-12-28T14:56:03;5.93;;;3.50;;
37407;SDS011;24866;50.248;8.252;2022-12-28T14:58:39;7.20;;;3.83;;
37407;SDS011;24866;50.248;8.252;2022-12-28T15:01:15;11.18;;;4.68;;
37407;SDS011;24866;50.248;8.252;2022-12-28T15:06:19;8.02;;;4.20;;
37407;SDS011;24866;50.248;8.252;2022-12-28T15:08:52;5.97;;;3.25;;
37407;SDS011;24866;50.248;8.252;2022-12-28T15:11:24;11.10;;;6.68;;
37407;SDS011;24866;50.248;8.252;2022-12-28T15:13:59;6.78;;;3.67;;
37407;SDS011;24866;50.248;8.252;2022-12-28T15:16:29;7.03;;;3.25;;
37407;SDS011;24866;50.248;8.252;2022-12-28T15:18:59;5.18;;;2.47;;
37407;SDS011;24866;50.248;8.252;2022-12-28T15:21:31;8.35;;;3.80;;
37407;SDS011;24866;50.248;8.252;2022-12-28T15:24:02;7.28;;;3.58;;
37407;SDS011;24866;50.248;8.252;2022-12-28T15:26:34;9.23;;;3.60;;
37407;SDS011;24866;50.248;8.252;2022-12-28T15:29:07;7.03;;;3.78;;
37407;SDS011;24866;50.248;8.252;2022-12-28T15:31:37;4.47;;;2.70;;
37407;SDS011;24866;50.248;8.252;2022-12-28T15:34:07;10.70;;;5.60;;
37407;SDS011;24866;50.248;8.252;2022-12-28T15:36:37;9.95;;;4.28;;
37407;SDS011;24866;50.248;8.252;2022-12-28T15:39:11;13.77;;;6.32;;
37407;SDS011;24866;50.248;8.252;2022-12-28T15:41:42;8.15;;;3.38;;
37407;SDS011;24866;50.248;8.252;2022-12-28T15:46:46;5.47;;;3.03;;
37407;SDS011;24866;50.248;8.252;2022-12-28T15:49:19;7.85;;;3.95;;
37407;SDS011;24866;50.248;8.252;2022-12-28T15:51:49;7.35;;;2.58;;
37407;SDS011;24866;50.248;8.252;2022-12-28T15:54:20;5.18;;;2.17;;
37407;SDS011;24866;50.248;8.252;2022-12-28T15:56:51;5.95;;;2.97;;
37407;SDS011;24866;50.248;8.252;2022-12-28T15:59:21;11.68;;;3.95;;
37407;SDS011;24866;50.248;8.252;2022-12-28T16:01:51;5.68;;;2.78;;